Lloydminster, Canada
Current Conditions -  °F | °C
As of 3:00 PM on Wednesday 22 Oct 2014 (Local Time) from CYLL Reporting Station
Few Clouds Few Clouds  
Wind Chill: 61°   Ceiling: Unl
Heat Index: 61°   Visibility: 15mi
Dew Point: 32°   Wind: 8mph
Humidity: 34%   Direction: 140°SE
Pressure: 29.7"   Gusts: NA
Location:  53.32°N, 110.07°W
Report Text: CYLL 222100Z 14007KT 15SM FEW270 16/00 A2970 RMK CI2 SLP071 DENSITY ALT 3000FT
Loading
Personal Weather Stations






























Interactive Weather Map
Tropical Storm Tracking
New forecast layout! Learn more

10-Day Weather Forecast

Advertisements
Track Severe Weather on mobile